createdAt,value
2022-11-23T00:00:48.856Z,3.00
2022-11-23T00:03:16.194Z,3.50
2022-11-23T00:05:42.981Z,3.30
2022-11-23T00:08:09.777Z,3.00
2022-11-23T00:10:36.580Z,3.20
2022-11-23T00:13:03.507Z,2.90
2022-11-23T00:15:30.370Z,3.08
2022-11-23T00:17:57.175Z,3.05
2022-11-23T00:20:23.996Z,2.55
2022-11-23T00:22:50.777Z,2.65
2022-11-23T00:25:17.769Z,2.50
2022-11-23T00:27:44.600Z,2.70
2022-11-23T00:30:11.967Z,2.70
2022-11-23T00:32:38.859Z,2.35
2022-11-23T00:35:05.846Z,2.75
2022-11-23T00:37:32.629Z,2.75
2022-11-23T00:39:59.439Z,2.75
2022-11-23T00:42:26.247Z,2.95
2022-11-23T00:44:53.034Z,2.80
2022-11-23T00:47:19.820Z,3.20
2022-11-23T00:49:46.628Z,2.95
2022-11-23T00:52:13.431Z,3.85
2022-11-23T00:54:40.232Z,3.20
2022-11-23T00:57:07.006Z,3.67
2022-11-23T00:59:34.127Z,2.70
2022-11-23T01:02:01.242Z,2.78
2022-11-23T01:04:29.232Z,3.17
2022-11-23T01:06:59.632Z,3.35
2022-11-23T01:09:27.020Z,2.92
2022-11-23T01:11:54.760Z,3.47
2022-11-23T01:14:22.386Z,3.75
2022-11-23T01:16:49.659Z,3.47
2022-11-23T01:19:20.763Z,3.35
2022-11-23T01:21:47.627Z,3.45
2022-11-23T01:24:20.584Z,3.10
2022-11-23T01:26:52.583Z,2.92
2022-11-23T01:29:19.588Z,3.00
2022-11-23T01:31:47.100Z,3.50
2022-11-23T01:34:15.066Z,3.05
2022-11-23T01:36:42.355Z,2.63
2022-11-23T01:39:11.405Z,2.45
2022-11-23T01:41:40.429Z,3.40
2022-11-23T01:44:29.739Z,2.75
2022-11-23T01:47:02.063Z,2.85
2022-11-23T01:49:33.734Z,2.67
2022-11-23T01:52:05.578Z,3.03
2022-11-23T01:54:38.534Z,2.90
2022-11-23T01:57:17.716Z,2.83
2022-11-23T01:59:45.717Z,3.30
2022-11-23T02:02:13.728Z,2.83
2022-11-23T02:04:43.995Z,2.70
2022-11-23T02:07:12.027Z,2.60
2022-11-23T02:09:39.409Z,2.75
2022-11-23T02:12:13.444Z,2.60
2022-11-23T02:14:41.367Z,2.50
2022-11-23T02:17:08.744Z,2.10
2022-11-23T02:20:03.572Z,1.92
2022-11-23T02:22:44.791Z,2.40
2022-11-23T02:25:36.460Z,2.50
2022-11-23T02:28:03.381Z,2.70
2022-11-23T02:30:31.987Z,2.53
2022-11-23T02:32:58.813Z,2.60
2022-11-23T02:35:25.699Z,2.83
2022-11-23T02:37:53.525Z,2.50
2022-11-23T02:40:28.608Z,2.28
2022-11-23T02:42:55.668Z,2.45
2022-11-23T02:45:33.832Z,2.60
2022-11-23T02:48:00.669Z,2.50
2022-11-23T02:50:28.024Z,2.75
2022-11-23T02:52:55.361Z,2.08
2022-11-23T02:55:22.495Z,2.40
2022-11-23T02:57:49.347Z,2.15
2022-11-23T03:00:17.219Z,2.97
2022-11-23T03:02:44.092Z,2.35
2022-11-23T03:05:11.142Z,2.20
2022-11-23T03:07:38.040Z,2.45
2022-11-23T03:10:05.839Z,2.10
2022-11-23T03:12:32.679Z,2.00
2022-11-23T03:14:59.488Z,2.25
2022-11-23T03:17:27.667Z,2.20
2022-11-23T03:19:54.568Z,1.92
2022-11-23T03:22:21.904Z,2.20
2022-11-23T03:24:48.691Z,2.10
2022-11-23T03:27:15.644Z,2.17
2022-11-23T03:29:42.466Z,2.13
2022-11-23T03:32:09.284Z,1.85
2022-11-23T03:34:36.210Z,2.40
2022-11-23T03:37:03.039Z,2.20
2022-11-23T03:39:30.060Z,2.20
2022-11-23T03:41:57.147Z,2.13
2022-11-23T03:44:23.956Z,2.08
2022-11-23T03:46:50.838Z,2.00
2022-11-23T03:49:17.731Z,2.10
2022-11-23T03:51:44.571Z,2.08
2022-11-23T03:54:11.428Z,2.20
2022-11-23T03:56:38.341Z,1.90
2022-11-23T03:59:05.152Z,2.03
2022-11-23T04:01:32.058Z,2.08
2022-11-23T04:03:59.075Z,2.63
2022-11-23T04:06:25.931Z,2.17
2022-11-23T04:08:56.197Z,2.45
2022-11-23T04:11:25.760Z,1.90
2022-11-23T04:13:52.610Z,2.15
2022-11-23T04:16:19.479Z,2.22
2022-11-23T04:18:46.330Z,2.50
2022-11-23T04:21:13.170Z,1.80
2022-11-23T04:23:39.965Z,2.13
2022-11-23T04:26:06.787Z,2.00
2022-11-23T04:28:33.643Z,1.88
2022-11-23T04:31:00.451Z,1.98
2022-11-23T04:33:27.410Z,2.17
2022-11-23T04:35:54.251Z,2.33
2022-11-23T04:38:21.080Z,2.15
2022-11-23T04:40:49.212Z,2.20
2022-11-23T04:43:16.105Z,2.20
2022-11-23T04:45:42.980Z,2.50
2022-11-23T04:48:09.872Z,2.20
2022-11-23T04:50:40.401Z,2.20
2022-11-23T04:53:07.771Z,2.00
2022-11-23T04:55:34.673Z,2.13
2022-11-23T04:58:01.633Z,2.30
2022-11-23T05:00:28.432Z,2.20
2022-11-23T05:02:55.291Z,2.05
2022-11-23T05:05:22.085Z,2.38
2022-11-23T05:07:49.000Z,2.22
2022-11-23T05:10:15.928Z,2.13
2022-11-23T05:12:42.944Z,2.35
2022-11-23T05:15:13.380Z,2.15
2022-11-23T05:17:40.238Z,2.00
2022-11-23T05:20:07.740Z,1.75
2022-11-23T05:22:34.615Z,2.15
2022-11-23T05:25:01.473Z,2.05
2022-11-23T05:27:28.424Z,2.25
2022-11-23T05:29:55.237Z,1.55
2022-11-23T05:32:22.115Z,1.90
2022-11-23T05:34:48.899Z,1.67
2022-11-23T05:37:16.030Z,2.30
2022-11-23T05:39:42.865Z,2.15
2022-11-23T05:42:09.692Z,1.98
2022-11-23T05:44:36.591Z,2.00
2022-11-23T05:47:03.457Z,2.25
2022-11-23T05:49:30.752Z,2.25
2022-11-23T05:51:57.713Z,2.00
2022-11-23T05:54:24.512Z,2.08
2022-11-23T05:56:51.442Z,2.40
2022-11-23T05:59:18.246Z,2.10
2022-11-23T06:01:45.056Z,1.98
2022-11-23T06:04:13.392Z,2.60
2022-11-23T06:06:40.311Z,2.10
2022-11-23T06:09:07.157Z,1.90
2022-11-23T06:11:35.303Z,2.53
2022-11-23T06:14:02.136Z,2.40
2022-11-23T06:16:28.985Z,2.00
2022-11-23T06:18:55.805Z,1.75
2022-11-23T06:21:22.625Z,1.88
2022-11-23T06:23:49.545Z,2.28
2022-11-23T06:26:16.485Z,2.00
2022-11-23T06:28:43.402Z,2.22
2022-11-23T06:31:10.398Z,2.47
2022-11-23T06:33:37.835Z,2.38
2022-11-23T06:36:04.990Z,1.92
2022-11-23T06:38:31.861Z,2.40
2022-11-23T06:40:59.938Z,2.90
2022-11-23T06:43:27.735Z,2.72
2022-11-23T06:45:56.060Z,2.50
2022-11-23T06:48:23.567Z,2.10
2022-11-23T06:50:50.836Z,2.50
2022-11-23T06:53:17.682Z,2.15
2022-11-23T06:55:44.611Z,3.17
2022-11-23T06:58:11.502Z,2.72
2022-11-23T07:00:38.421Z,2.45
2022-11-23T07:03:05.266Z,2.47
2022-11-23T07:05:32.071Z,2.47
2022-11-23T07:07:58.857Z,2.58
2022-11-23T07:10:26.771Z,3.20
2022-11-23T07:12:54.967Z,2.90
2022-11-23T07:15:21.963Z,3.03
2022-11-23T07:17:48.817Z,3.10
2022-11-23T07:20:16.124Z,3.10
2022-11-23T07:22:42.963Z,3.20
2022-11-23T07:25:11.478Z,2.90
2022-11-23T07:27:38.336Z,2.67
2022-11-23T07:30:05.817Z,3.20
2022-11-23T07:32:32.836Z,2.40
2022-11-23T07:34:59.811Z,3.53
2022-11-23T07:37:26.875Z,3.58
2022-11-23T07:39:58.118Z,2.63
2022-11-23T07:42:33.566Z,3.10
2022-11-23T07:45:00.859Z,2.90
2022-11-23T07:47:27.673Z,2.67
2022-11-23T07:49:54.685Z,2.75
2022-11-23T07:52:21.918Z,2.80
2022-11-23T07:54:48.866Z,3.30
2022-11-23T07:57:15.693Z,2.72
2022-11-23T07:59:42.567Z,3.13
2022-11-23T08:02:13.133Z,2.90
2022-11-23T08:04:40.019Z,2.97
2022-11-23T08:07:07.439Z,3.25
2022-11-23T08:09:34.454Z,2.40
2022-11-23T08:12:01.254Z,2.88
2022-11-23T08:14:28.142Z,2.50
2022-11-23T08:16:54.964Z,2.92
2022-11-23T08:19:21.811Z,2.38
2022-11-23T08:21:48.641Z,3.15
2022-11-23T08:24:15.504Z,2.80
2022-11-23T08:26:42.491Z,2.80
2022-11-23T08:29:09.344Z,3.00
2022-11-23T08:31:36.282Z,2.50
2022-11-23T08:34:03.841Z,2.70
2022-11-23T08:36:30.849Z,3.15
2022-11-23T08:38:57.688Z,3.15
2022-11-23T08:41:24.625Z,2.65
2022-11-23T08:43:51.876Z,2.50
2022-11-23T08:46:18.935Z,2.35
2022-11-23T08:48:45.865Z,2.72
2022-11-23T08:51:12.769Z,3.28
2022-11-23T08:53:39.606Z,2.75
2022-11-23T08:56:07.782Z,2.85
2022-11-23T08:58:34.726Z,2.25
2022-11-23T09:01:01.619Z,2.95
2022-11-23T09:03:28.405Z,2.33
2022-11-23T09:05:59.737Z,2.25
2022-11-23T09:08:26.573Z,2.00
2022-11-23T09:10:53.423Z,2.10
2022-11-23T09:13:20.380Z,2.42
2022-11-23T09:15:47.265Z,2.42
2022-11-23T09:18:14.158Z,2.55
2022-11-23T09:20:40.972Z,1.90
2022-11-23T09:23:13.692Z,2.10
2022-11-23T09:25:43.102Z,3.38
2022-11-23T09:28:12.600Z,1.50
2022-11-23T09:30:39.448Z,1.60
2022-11-23T09:33:06.350Z,1.90
2022-11-23T09:35:33.219Z,1.65
2022-11-23T09:38:00.408Z,1.98
2022-11-23T09:40:37.777Z,2.10
2022-11-23T09:43:42.745Z,1.73
2022-11-23T09:46:36.732Z,1.87
2022-11-23T09:49:09.970Z,1.80
2022-11-23T09:51:40.269Z,1.83
2022-11-23T09:54:22.351Z,1.73
2022-11-23T09:56:58.511Z,1.67
2022-11-23T09:59:31.184Z,1.80
2022-11-23T10:01:59.064Z,1.70
2022-11-23T10:04:35.566Z,1.60
2022-11-23T10:07:17.661Z,1.50
2022-11-23T10:09:54.354Z,1.70
2022-11-23T10:12:48.134Z,1.53
2022-11-23T10:15:27.642Z,1.20
2022-11-23T10:18:07.792Z,1.77
2022-11-23T10:20:53.481Z,1.47
2022-11-23T10:23:48.660Z,1.20
2022-11-23T10:26:19.135Z,1.67
2022-11-23T10:28:47.644Z,1.30
2022-11-23T10:31:20.097Z,1.30
2022-11-23T10:34:01.061Z,1.47
2022-11-23T10:36:28.072Z,1.40
2022-11-23T10:38:59.724Z,1.40
2022-11-23T10:41:26.867Z,1.53
2022-11-23T10:44:07.023Z,1.70
2022-11-23T10:46:37.401Z,1.43
2022-11-23T10:49:15.374Z,1.10
2022-11-23T10:51:59.485Z,1.30
2022-11-23T10:54:26.304Z,1.40
2022-11-23T10:56:56.756Z,1.30
2022-11-23T10:59:30.197Z,1.60
2022-11-23T11:02:13.528Z,1.60
2022-11-23T11:04:42.163Z,1.80
2022-11-23T11:07:23.779Z,1.60
2022-11-23T11:09:55.957Z,1.93
2022-11-23T11:12:23.703Z,1.37
2022-11-23T11:15:16.924Z,1.53
2022-11-23T11:17:44.057Z,1.60
2022-11-23T11:20:32.929Z,1.43
2022-11-23T11:23:15.233Z,1.90
2022-11-23T11:25:42.363Z,1.57
2022-11-23T11:28:41.178Z,1.50
2022-11-23T11:31:51.996Z,1.20
2022-11-23T11:34:40.635Z,1.23
2022-11-23T11:37:19.225Z,1.63
2022-11-23T11:39:57.695Z,2.13
2022-11-23T11:42:34.312Z,1.50
2022-11-23T11:45:05.204Z,1.47
2022-11-23T11:47:37.853Z,1.30
2022-11-23T11:50:28.466Z,1.60
2022-11-23T11:53:09.194Z,1.80
2022-11-23T11:55:54.680Z,1.50
2022-11-23T11:58:25.163Z,1.30
2022-11-23T12:01:04.051Z,1.40
2022-11-23T12:03:52.316Z,1.40
2022-11-23T12:06:32.371Z,1.50
2022-11-23T12:09:02.731Z,1.40
2022-11-23T12:11:29.644Z,1.40
2022-11-23T12:14:02.109Z,1.33
2022-11-23T12:16:41.573Z,1.47
2022-11-23T12:19:32.152Z,1.30
2022-11-23T12:22:41.395Z,1.10
2022-11-23T12:25:34.650Z,1.17
2022-11-23T12:28:13.734Z,1.40
2022-11-23T12:30:53.002Z,1.00
2022-11-23T12:33:22.864Z,1.07
2022-11-23T12:36:16.722Z,1.40
2022-11-23T12:38:55.915Z,1.23
2022-11-23T12:41:52.153Z,1.40
2022-11-23T12:44:49.243Z,1.10
2022-11-23T12:47:46.774Z,1.30
2022-11-23T12:50:30.826Z,1.27
2022-11-23T12:53:29.511Z,1.10
2022-11-23T12:56:04.589Z,1.17
2022-11-23T12:58:34.391Z,1.40
2022-11-23T13:01:31.101Z,1.20
2022-11-23T13:04:42.486Z,1.33
2022-11-23T13:07:30.617Z,1.33
2022-11-23T13:10:39.962Z,1.30
2022-11-23T13:13:25.754Z,1.40
2022-11-23T13:16:04.817Z,1.10
2022-11-23T13:18:50.407Z,1.10
2022-11-23T13:21:25.131Z,1.10
2022-11-23T13:23:52.133Z,1.00
2022-11-23T13:26:24.649Z,1.10
2022-11-23T13:28:53.315Z,1.30
2022-11-23T13:31:26.633Z,1.07
2022-11-23T13:33:56.082Z,1.37
2022-11-23T13:37:04.230Z,1.10
2022-11-23T13:39:45.402Z,1.30
2022-11-23T13:42:13.603Z,1.20
2022-11-23T13:44:40.566Z,1.30
2022-11-23T13:47:20.053Z,1.27
2022-11-23T13:49:50.086Z,1.20
2022-11-23T13:52:22.709Z,1.23
2022-11-23T13:54:57.634Z,1.00
2022-11-23T13:57:24.810Z,1.10
2022-11-23T13:59:51.713Z,1.00
2022-11-23T14:02:30.104Z,1.20
2022-11-23T14:05:34.694Z,1.00
2022-11-23T14:08:03.633Z,1.13
2022-11-23T14:10:32.314Z,1.20
2022-11-23T14:13:19.326Z,1.40
2022-11-23T14:15:59.396Z,1.10
2022-11-23T14:18:35.608Z,1.10
2022-11-23T14:21:13.989Z,0.90
2022-11-23T14:23:55.550Z,1.00
2022-11-23T14:26:39.359Z,1.00
2022-11-23T14:29:30.427Z,1.00
2022-11-23T14:32:26.746Z,1.10
2022-11-23T14:35:33.398Z,1.30
2022-11-23T14:38:15.204Z,1.37
2022-11-23T14:41:04.598Z,1.50
2022-11-23T14:43:33.277Z,1.47
2022-11-23T14:46:07.348Z,1.40
2022-11-23T14:48:35.989Z,1.73
2022-11-23T14:51:12.276Z,1.60
2022-11-23T14:53:47.150Z,1.70
2022-11-23T14:56:28.084Z,1.70
2022-11-23T14:59:02.533Z,1.50
2022-11-23T15:01:29.739Z,1.50
2022-11-23T15:03:58.439Z,1.60
2022-11-23T15:06:30.622Z,1.77
2022-11-23T15:09:32.807Z,1.70
2022-11-23T15:12:07.848Z,1.73
2022-11-23T15:14:35.299Z,1.70
2022-11-23T15:17:20.787Z,1.67
2022-11-23T15:20:01.798Z,1.60
2022-11-23T15:22:31.178Z,1.85
2022-11-23T15:25:09.186Z,1.80
2022-11-23T15:27:39.836Z,2.53
2022-11-23T15:30:19.147Z,1.73
2022-11-23T15:32:56.571Z,1.60
2022-11-23T15:35:29.648Z,1.60
2022-11-23T15:37:57.024Z,1.85
2022-11-23T15:40:29.044Z,2.20
2022-11-23T15:42:56.111Z,2.00
2022-11-23T15:45:42.049Z,2.50
2022-11-23T15:48:18.468Z,1.83
2022-11-23T15:50:54.239Z,2.35
2022-11-23T15:53:33.384Z,2.20
2022-11-23T15:56:06.240Z,2.65
2022-11-23T15:58:35.256Z,2.60
2022-11-23T16:01:13.544Z,2.97
2022-11-23T16:03:42.391Z,2.50
2022-11-23T16:06:16.639Z,2.60
2022-11-23T16:08:43.491Z,2.22
2022-11-23T16:11:35.345Z,3.10
2022-11-23T16:14:20.582Z,2.90
2022-11-23T16:16:58.534Z,3.10
2022-11-23T16:19:29.160Z,2.65
2022-11-23T16:22:02.614Z,3.22
2022-11-23T16:24:32.655Z,2.85
2022-11-23T16:27:00.068Z,2.88
2022-11-23T16:29:32.723Z,2.80
2022-11-23T16:32:01.156Z,3.45
2022-11-23T16:34:28.224Z,3.50
2022-11-23T16:36:56.247Z,3.10
2022-11-23T16:39:27.578Z,3.10
2022-11-23T16:41:54.637Z,2.50
2022-11-23T16:44:21.479Z,2.75
2022-11-23T16:46:48.530Z,3.03
2022-11-23T16:49:18.559Z,2.90
2022-11-23T16:51:46.402Z,2.58
2022-11-23T16:54:15.238Z,2.70
2022-11-23T16:56:45.140Z,2.63
2022-11-23T16:59:22.259Z,2.75
2022-11-23T17:01:56.639Z,2.90
2022-11-23T17:04:24.443Z,2.95
2022-11-23T17:06:51.359Z,2.88
2022-11-23T17:09:19.309Z,3.20
2022-11-23T17:11:50.092Z,2.80
2022-11-23T17:14:19.178Z,2.88
2022-11-23T17:16:47.248Z,4.03
2022-11-23T17:19:18.882Z,3.20
2022-11-23T17:21:46.230Z,3.13
2022-11-23T17:24:14.064Z,3.22
2022-11-23T17:26:44.586Z,3.15
2022-11-23T17:29:19.762Z,3.65
2022-11-23T17:31:47.923Z,3.83
2022-11-23T17:34:15.386Z,4.00
2022-11-23T17:36:44.313Z,3.80
2022-11-23T17:39:26.089Z,4.25
2022-11-23T17:41:52.939Z,4.03
2022-11-23T17:44:19.813Z,3.75
2022-11-23T17:46:47.728Z,4.43
2022-11-23T17:49:18.180Z,4.05
2022-11-23T17:51:44.970Z,3.78
2022-11-23T17:54:12.207Z,4.25
2022-11-23T17:56:39.226Z,4.10
2022-11-23T17:59:08.792Z,4.13
2022-11-23T18:01:35.617Z,3.65
2022-11-23T18:04:02.525Z,4.25
2022-11-23T18:06:29.547Z,4.50
2022-11-23T18:08:57.080Z,3.60
2022-11-23T18:11:24.733Z,4.20
2022-11-23T18:13:52.281Z,5.53
2022-11-23T18:16:20.585Z,3.55
2022-11-23T18:18:48.335Z,4.28
2022-11-23T18:21:15.680Z,4.47
2022-11-23T18:23:43.110Z,4.70
2022-11-23T18:26:20.166Z,4.10
2022-11-23T18:28:47.484Z,4.80
2022-11-23T18:31:14.672Z,3.88
2022-11-23T18:33:41.641Z,4.60
2022-11-23T18:36:09.292Z,3.88
2022-11-23T18:38:36.440Z,4.65
2022-11-23T18:41:03.352Z,4.43
2022-11-23T18:43:30.243Z,4.70
2022-11-23T18:45:57.190Z,4.93
2022-11-23T18:48:24.347Z,4.50
2022-11-23T18:50:51.633Z,4.93
2022-11-23T18:53:18.911Z,4.40
2022-11-23T18:55:45.730Z,4.82
2022-11-23T18:58:12.615Z,5.03
2022-11-23T19:00:39.423Z,4.20
2022-11-23T19:03:06.485Z,4.88
2022-11-23T19:05:34.808Z,4.82
2022-11-23T19:08:04.172Z,5.22
2022-11-23T19:10:35.843Z,4.20
2022-11-23T19:13:05.778Z,3.85
2022-11-23T19:15:33.952Z,4.43
2022-11-23T19:18:01.070Z,4.30
2022-11-23T19:20:29.223Z,4.43
2022-11-23T19:22:56.357Z,4.78
2022-11-23T19:25:23.355Z,3.90
2022-11-23T19:27:51.451Z,4.57
2022-11-23T19:30:18.662Z,4.20
2022-11-23T19:32:45.724Z,3.83
2022-11-23T19:35:12.687Z,3.95
2022-11-23T19:37:39.572Z,4.85
2022-11-23T19:40:07.053Z,3.70
2022-11-23T19:42:36.926Z,3.83
2022-11-23T19:45:05.830Z,3.83
2022-11-23T19:47:32.669Z,4.15
2022-11-23T19:49:59.537Z,4.30
2022-11-23T19:52:48.132Z,3.65
2022-11-23T19:55:16.525Z,3.40
2022-11-23T19:57:43.353Z,2.80
2022-11-23T20:00:10.772Z,2.58
2022-11-23T20:02:37.568Z,2.10
2022-11-23T20:05:04.703Z,2.55
2022-11-23T20:07:31.865Z,2.10
2022-11-23T20:09:58.787Z,2.15
2022-11-23T20:12:25.572Z,2.47
2022-11-23T20:14:52.413Z,2.20
2022-11-23T20:17:19.197Z,2.75
2022-11-23T20:19:46.008Z,2.60
2022-11-23T20:22:12.775Z,2.03
2022-11-23T20:24:39.575Z,1.95
2022-11-23T20:27:06.359Z,2.10
2022-11-23T20:29:33.214Z,2.38
2022-11-23T20:32:00.134Z,2.55
2022-11-23T20:34:27.333Z,1.90
2022-11-23T20:36:54.110Z,1.95
2022-11-23T20:39:21.008Z,1.92
2022-11-23T20:41:49.755Z,2.08
2022-11-23T20:44:16.685Z,1.77
2022-11-23T20:49:31.080Z,2.20
2022-11-23T20:51:58.848Z,2.25
2022-11-23T20:54:25.685Z,2.08
2022-11-23T20:56:52.581Z,2.05
2022-11-23T20:59:20.291Z,2.10
2022-11-23T21:01:47.143Z,2.10
2022-11-23T21:04:14.017Z,1.85
2022-11-23T21:06:40.894Z,2.08
2022-11-23T21:09:11.519Z,2.42
2022-11-23T21:11:56.791Z,2.00
2022-11-23T21:14:27.399Z,1.90
2022-11-23T21:16:59.642Z,1.90
2022-11-23T21:19:29.178Z,1.85
2022-11-23T21:21:57.375Z,1.90
2022-11-23T21:24:24.815Z,2.00
2022-11-23T21:26:51.716Z,1.73
2022-11-23T21:29:19.130Z,1.80
2022-11-23T21:31:47.610Z,2.53
2022-11-23T21:34:21.691Z,1.77
2022-11-23T21:36:49.275Z,1.80
2022-11-23T21:39:16.644Z,1.95
2022-11-23T21:41:44.410Z,2.20
2022-11-23T21:44:11.944Z,1.80
2022-11-23T21:46:40.551Z,1.90
2022-11-23T21:49:08.217Z,1.95
2022-11-23T21:51:35.790Z,2.00
2022-11-23T21:54:07.931Z,1.90
2022-11-23T21:56:34.795Z,2.38
2022-11-23T21:59:02.039Z,2.10
2022-11-23T22:01:34.037Z,2.10
2022-11-23T22:04:02.620Z,2.45
2022-11-23T22:06:30.293Z,2.05
2022-11-23T22:08:59.725Z,2.20
2022-11-23T22:11:31.693Z,2.55
2022-11-23T22:14:08.050Z,2.20
2022-11-23T22:16:37.024Z,2.50
2022-11-23T22:19:05.041Z,2.22
2022-11-23T22:21:37.294Z,2.22
2022-11-23T22:24:05.663Z,2.58
2022-11-23T22:26:32.763Z,2.75
2022-11-23T22:29:02.540Z,2.55
2022-11-23T22:31:33.049Z,2.70
2022-11-23T22:34:01.803Z,2.60
2022-11-23T22:36:28.767Z,2.50
2022-11-23T22:39:01.423Z,2.22
2022-11-23T22:41:30.186Z,2.75
2022-11-23T22:43:57.107Z,2.90
2022-11-23T22:46:25.304Z,2.90
2022-11-23T22:48:52.773Z,3.10
2022-11-23T22:51:23.500Z,2.90
2022-11-23T22:53:54.822Z,2.85
2022-11-23T22:56:21.736Z,2.80
2022-11-23T22:58:49.333Z,2.42
2022-11-23T23:01:19.038Z,2.75
2022-11-23T23:03:46.788Z,2.95
2022-11-23T23:06:22.042Z,2.83
2022-11-23T23:08:53.906Z,2.95
2022-11-23T23:11:21.259Z,3.25
2022-11-23T23:13:48.591Z,2.33
2022-11-23T23:16:16.266Z,2.55
2022-11-23T23:18:44.471Z,2.40
2022-11-23T23:21:16.623Z,2.65
2022-11-23T23:23:46.008Z,2.75
2022-11-23T23:26:14.351Z,2.70
2022-11-23T23:28:41.387Z,2.53
2022-11-23T23:31:11.003Z,2.25
2022-11-23T23:33:38.211Z,2.33
2022-11-23T23:36:05.322Z,2.70
2022-11-23T23:38:33.020Z,2.30
2022-11-23T23:41:00.794Z,2.10
2022-11-23T23:43:29.081Z,2.25
2022-11-23T23:46:00.699Z,2.25
2022-11-23T23:48:32.289Z,2.88
2022-11-23T23:51:04.251Z,2.47
2022-11-23T23:53:33.850Z,2.40
2022-11-23T23:56:03.584Z,1.98
2022-11-23T23:58:30.988Z,2.10
